ESGG/GOT METAR and TAF weather

Enter ICAO airport designator
Station Type Date Time Source
ESGG METAR 2022/08/16 18:50 UTC NOAA

ESGG 161850Z 18007KT 9000 SCT007 BKN009 BKN015 20/19 Q1007


Station Type Date Time Source
ESGG Decoded METAR 2022/08/16 18:50 UTC NOAA

Goteborg / Landvetter, Sweden (ESGG) 57-40N 012-18E
Aug 16, 2022 - 02:50 PM EDT / 2022.08.16 1850 UTC
Wind: from the S (180 degrees) at 8 MPH (7 KT):0
Visibility: 5 mile(s):0
Sky conditions: mostly cloudy
Temperature: 68 F (20 C)
Dew Point: 66 F (19 C)
Relative Humidity: 93%
Pressure (altimeter): 29.74 in. Hg (1007 hPa)
ob: ESGG 161850Z 18007KT 9000 SCT007 BKN009 BKN015 20/19 Q1007
cycle: 19

Station Type Date Time Source
ESGG TAF 2022/08/16 18:12 UTC NOAA

TAF TAF ESGG 161730Z 1618/1718 20012KT 9999 SCT015 PROB40 1618/1621 SHRA BKN025CB PROB40 1621/1706 2000 BR BKN004 PROB40 1706/1709 BKN007

Example: see airport list